Time;durP1;ratioP1;P1;durP2;ratioP2;P2;SDS_P1;SDS_P2;PMS_P1;PMS_P2;Temp;Humidity;BMP_temperature;BMP_pressure;BME280_temperature;BME280_humidity;BME280_pressure;Samples;Min_cycle;Max_cycle;Signal;HPM_P1;HPM_P2
2022/12/14 00:01:45;;;;;;;23.33;14.05;;;;;;;-3.28;83.33;100469.63;4910921;29;20047;-71
2022/12/14 00:04:16;;;;;;;22.95;14.52;;;;;;;-3.30;83.50;100472.16;4912903;29;20068;-71
2022/12/14 00:06:44;;;;;;;22.90;14.93;;;;;;;-3.28;83.46;100465.34;4919816;29;20051;-71
2022/12/14 00:09:11;;;;;;;25.58;15.15;;;;;;;-3.30;83.75;100455.81;4910194;29;20821;-71
2022/12/14 00:11:38;;;;;;;27.52;14.55;;;;;;;-3.30;83.49;100454.13;4897908;29;20517;-71
2022/12/14 00:14:06;;;;;;;24.20;14.90;;;;;;;-3.31;83.57;100454.09;4911795;29;20071;-71
2022/12/14 00:16:34;;;;;;;24.88;14.65;;;;;;;-3.34;83.24;100452.31;4912416;29;20053;-70
2022/12/14 00:19:04;;;;;;;23.77;14.93;;;;;;;-3.33;83.03;100455.78;4910087;29;20044;-70
2022/12/14 00:21:32;;;;;;;24.08;14.70;;;;;;;-3.37;83.46;100459.13;4906436;29;20049;-70
2022/12/14 00:23:59;;;;;;;25.63;14.32;;;;;;;-3.38;83.29;100449.63;4916847;29;20109;-70
2022/12/14 00:26:31;;;;;;;22.13;14.35;;;;;;;-3.41;83.55;100457.34;4939323;28;20529;-70
2022/12/14 00:29:00;;;;;;;24.02;14.75;;;;;;;-3.45;83.69;100439.22;4931781;28;20052;-70
2022/12/14 00:31:30;;;;;;;26.55;14.45;;;;;;;-3.47;83.66;100432.28;4933746;28;20044;-70
2022/12/14 00:33:59;;;;;;;25.95;14.90;;;;;;;-3.50;83.94;100439.97;4934156;29;20489;-70
2022/12/14 00:36:27;;;;;;;23.13;14.55;;;;;;;-3.51;84.07;100440.78;4934566;28;20051;-70
2022/12/14 00:38:55;;;;;;;24.08;14.10;;;;;;;-3.53;84.06;100438.19;4929487;29;20490;-71
2022/12/14 00:41:22;;;;;;;21.67;13.93;;;;;;;-3.52;83.99;100442.50;4937861;28;20494;-70
2022/12/14 00:43:49;;;;;;;25.90;14.63;;;;;;;-3.51;83.99;100444.22;4933692;28;20509;-77
2022/12/14 00:46:17;;;;;;;24.27;14.15;;;;;;;-3.52;84.16;100442.50;4935366;29;20489;-77
2022/12/14 00:48:44;;;;;;;25.48;13.88;;;;;;;-3.50;84.28;100442.53;4936425;28;20048;-76
2022/12/14 00:51:13;;;;;;;23.77;13.93;;;;;;;-3.51;84.29;100439.06;4934439;28;20056;-75
2022/12/14 00:53:43;;;;;;;21.45;12.90;;;;;;;-3.49;84.27;100439.97;4926939;29;20044;-75
2022/12/14 00:56:11;;;;;;;20.05;12.30;;;;;;;-3.49;84.35;100439.97;4932504;28;20051;-76
2022/12/14 00:58:38;;;;;;;21.35;13.27;;;;;;;-3.49;84.21;100429.66;4920462;29;22313;-76
2022/12/14 01:01:13;;;;;;;21.60;12.88;;;;;;;-3.51;84.20;100420.16;4927306;29;20052;-76
2022/12/14 01:03:41;;;;;;;21.60;12.88;;;;;;;-3.49;84.33;100415.94;4916565;29;20045;-76
2022/12/14 01:06:18;;;;;;;22.27;13.30;;;;;;;-3.49;84.20;100416.78;4935748;28;20092;-75
2022/12/14 01:08:46;;;;;;;21.80;13.02;;;;;;;-3.50;84.29;100404.72;4929864;29;20044;-75
2022/12/14 01:11:14;;;;;;;20.83;12.88;;;;;;;-3.52;83.97;100403.84;4924844;29;20052;-75
2022/12/14 01:13:42;;;;;;;25.45;13.23;;;;;;;-3.49;83.33;100396.16;4927362;29;20051;-76
2022/12/14 01:16:13;;;;;;;19.42;12.05;;;;;;;-3.46;82.46;100392.78;4935822;28;20067;-74
2022/12/14 01:18:42;;;;;;;19.48;12.25;;;;;;;-3.50;82.24;100385.84;4938747;28;20063;-75
2022/12/14 01:21:18;;;;;;;21.38;12.38;;;;;;;-3.44;82.02;100388.50;4931600;28;20036;-75
2022/12/14 01:23:47;;;;;;;22.85;12.38;;;;;;;-3.48;82.25;100385.00;4922754;28;20132;-75
2022/12/14 01:26:17;;;;;;;20.52;12.10;;;;;;;-3.47;82.15;100381.59;4931081;28;20055;-75
2022/12/14 01:28:51;;;;;;;20.45;11.60;;;;;;;-3.45;81.79;100379.94;4919542;29;20044;-71
2022/12/14 01:31:24;;;;;;;16.35;10.55;;;;;;;-3.42;81.78;100386.84;4923777;29;20093;-71
2022/12/14 01:33:52;;;;;;;19.38;11.35;;;;;;;-3.42;81.75;100378.25;4933235;28;20048;-71
2022/12/14 01:36:24;;;;;;;19.60;10.98;;;;;;;-3.40;81.47;100379.13;4922165;28;20048;-71
2022/12/14 01:38:55;;;;;;;16.77;10.93;;;;;;;-3.37;81.31;100380.09;4934931;28;20044;-74
2022/12/14 01:41:38;;;;;;;17.52;10.07;;;;;;;-3.39;81.38;100374.03;4933013;28;20044;-74
2022/12/14 01:44:08;;;;;;;18.23;11.00;;;;;;;-3.36;80.51;100360.31;4932928;29;20190;-75
2022/12/14 01:46:47;;;;;;;18.08;10.57;;;;;;;-3.39;80.71;100352.50;4933984;29;20525;-74
2022/12/14 01:49:29;;;;;;;17.33;10.80;;;;;;;-3.38;80.30;100362.00;4917784;28;20068;-75
2022/12/14 01:52:33;;;;;;;18.60;10.70;;;;;;;-3.41;80.44;100370.53;4928961;29;20132;-73
2022/12/14 01:55:21;;;;;;;17.35;10.75;;;;;;;-3.43;80.74;100364.47;4913720;29;20049;-73
2022/12/14 01:58:01;;;;;;;17.10;10.23;;;;;;;-3.45;80.98;100366.16;4923049;29;20040;-73
2022/12/14 02:00:29;;;;;;;17.35;10.98;;;;;;;-3.46;81.18;100367.03;4925884;29;20057;-73
2022/12/14 02:03:06;;;;;;;16.65;10.65;;;;;;;-3.45;80.57;100366.16;4917944;29;20080;-74
2022/12/14 02:05:38;;;;;;;19.25;10.98;;;;;;;-3.46;80.84;100361.88;4932151;29;20044;-76
2022/12/14 02:08:07;;;;;;;18.55;11.07;;;;;;;-3.50;81.26;100363.50;4932284;29;20096;-76
2022/12/14 02:10:35;;;;;;;18.88;10.35;;;;;;;-3.50;81.03;100362.63;4933664;28;20052;-76
2022/12/14 02:13:21;;;;;;;16.42;10.25;;;;;;;-3.51;81.16;100355.75;4934823;29;20044;-77
2022/12/14 02:15:50;;;;;;;17.88;10.68;;;;;;;-3.52;81.14;100354.00;4925169;29;20037;-76
2022/12/14 02:18:25;;;;;;;19.08;10.75;;;;;;;-3.51;81.03;100355.75;4926353;28;20082;-76
2022/12/14 02:21:21;;;;;;;16.25;10.68;;;;;;;-3.52;80.80;100351.41;4932324;28;20060;-76
2022/12/14 02:24:11;;;;;;;19.20;10.45;;;;;;;-3.53;80.78;100345.41;4922624;28;20060;-77
2022/12/14 02:27:07;;;;;;;17.25;10.50;;;;;;;-3.55;80.69;100346.19;4930999;28;20044;-77
2022/12/14 02:30:19;;;;;;;19.17;10.77;;;;;;;-3.57;80.24;100338.44;4931954;28;20048;-78
2022/12/14 02:33:07;;;;;;;18.67;11.20;;;;;;;-3.59;80.62;100322.06;4886818;29;20060;-77
2022/12/14 02:35:52;;;;;;;17.30;10.35;;;;;;;-3.60;80.63;100323.81;4890130;29;20471;-77
2022/12/14 02:38:45;;;;;;;16.38;10.57;;;;;;;-3.61;80.93;100326.31;4910491;28;20425;-77
2022/12/14 02:41:20;;;;;;;18.38;11.23;;;;;;;-3.61;80.26;100321.16;4928509;28;20040;-77
2022/12/14 02:44:09;;;;;;;;;;;;;;;-3.63;80.45;100315.16;4927702;29;20104;-77
2022/12/14 02:46:56;;;;;;;18.85;10.70;;;;;;;-3.60;80.18;100317.75;4925794;28;20506;-77
2022/12/14 02:49:47;;;;;;;17.80;10.70;;;;;;;-3.61;80.47;100311.75;4932059;28;20108;-75
2022/12/14 02:52:37;;;;;;;16.85;10.82;;;;;;;-3.59;80.36;100314.34;4918695;28;20104;-73
2022/12/14 02:55:25;;;;;;;16.80;9.82;;;;;;;-3.58;80.49;100310.94;4931819;28;20051;-72
2022/12/14 02:58:42;;;;;;;18.52;10.30;;;;;;;-3.58;80.43;100313.50;4931231;29;20095;-72
2022/12/14 03:01:15;;;;;;;16.02;9.80;;;;;;;-3.57;80.70;100316.97;4900289;29;20064;-72
2022/12/14 03:03:43;;;;;;;16.83;9.55;;;;;;;-3.56;80.53;100319.56;4931840;29;20036;-73
2022/12/14 03:06:24;;;;;;;15.65;10.10;;;;;;;-3.54;80.49;100322.16;4928559;28;20120;-74
2022/12/14 03:09:06;;;;;;;16.80;10.35;;;;;;;-3.51;80.15;100310.19;4923498;28;20131;-73
2022/12/14 03:11:47;;;;;;;17.30;9.85;;;;;;;-3.50;80.49;100324.81;4933905;28;20040;-76
2022/12/14 03:14:28;;;;;;;16.08;9.55;;;;;;;-3.48;80.21;100314.56;4932005;29;20103;-77
2022/12/14 03:17:06;;;;;;;14.98;9.13;;;;;;;-3.52;80.39;100316.22;4919115;28;20054;-78
2022/12/14 03:19:43;;;;;;;17.67;10.10;;;;;;;-3.49;79.94;100310.25;4930331;29;20505;-78
2022/12/14 03:22:36;;;;;;;16.27;9.98;;;;;;;-3.50;79.55;100304.22;4932548;29;20123;-78
2022/12/14 03:25:14;;;;;;;16.45;9.55;;;;;;;-3.51;79.48;100314.50;4929374;29;20450;-78
2022/12/14 03:27:53;;;;;;;15.90;9.20;;;;;;;-3.56;79.44;100309.25;4926938;29;20108;-78
2022/12/14 03:30:20;;;;;;;16.45;9.57;;;;;;;-3.60;79.48;100303.19;4929837;29;20047;-76
2022/12/14 03:33:17;;;;;;;16.85;9.23;;;;;;;-3.57;79.65;100293.78;4923427;29;20050;-76
2022/12/14 03:36:18;;;;;;;15.55;9.35;;;;;;;-3.63;79.79;100289.38;4929880;29;20051;-76
2022/12/14 03:38:52;;;;;;;15.98;9.50;;;;;;;-3.63;79.87;100297.09;4928730;29;20052;-76
2022/12/14 03:41:56;;;;;;;16.23;9.75;;;;;;;-3.67;80.00;100293.63;4928423;28;20041;-76
2022/12/14 03:44:38;;;;;;;15.85;9.18;;;;;;;-3.70;80.50;100288.38;4921018;29;20054;-77
2022/12/14 03:47:30;;;;;;;16.20;9.75;;;;;;;-3.72;80.77;100284.06;4922679;29;20056;-75
2022/12/14 03:50:29;;;;;;;17.52;10.20;;;;;;;-3.72;80.87;100289.22;4929276;29;20055;-75
2022/12/14 03:53:50;;;;;;;16.33;9.95;;;;;;;-3.71;80.86;100278.06;4929978;29;20490;-73
2022/12/14 03:56:39;;;;;;;15.82;9.60;;;;;;;-3.72;80.69;100273.75;4913798;28;20125;-73
2022/12/14 03:59:42;;;;;;;18.27;10.60;;;;;;;-3.75;80.80;100265.13;4918493;29;20051;-74
2022/12/14 04:02:48;;;;;;;18.38;10.75;;;;;;;-3.75;80.46;100269.38;4923932;28;20044;-73
2022/12/14 04:05:23;;;;;;;18.05;10.73;;;;;;;-3.77;81.04;100266.78;4933854;28;20131;-73
2022/12/14 04:08:40;;;;;;;18.60;10.77;;;;;;;-3.76;81.00;100267.63;4939778;28;20051;-76
2022/12/14 04:20:10;;;;;;;19.38;11.32;;;;;;;-3.79;81.25;100252.16;4928437;29;20044;-72
2022/12/14 04:22:46;;;;;;;19.80;11.10;;;;;;;-3.78;81.26;100251.31;4922809;29;20044;-72
2022/12/14 04:31:16;;;;;;;16.55;10.95;;;;;;;-3.73;81.00;100236.78;4927824;29;20093;-76
2022/12/14 04:33:53;;;;;;;20.30;11.65;;;;;;;-3.74;81.17;100235.06;4924846;29;20055;-75
2022/12/14 04:36:45;;;;;;;21.20;12.52;;;;;;;-3.74;80.90;100240.22;4930171;29;20036;-76
2022/12/14 04:39:21;;;;;;;19.77;12.57;;;;;;;-3.76;81.15;100231.56;4933275;28;20075;-76
2022/12/14 04:41:55;;;;;;;19.77;11.93;;;;;;;-3.76;81.12;100232.47;4935865;28;20852;-75
2022/12/14 04:44:36;;;;;;;20.08;12.40;;;;;;;-3.73;81.33;100218.75;4933722;29;20077;-73
2022/12/14 04:47:09;;;;;;;23.13;13.73;;;;;;;-3.73;81.17;100218.75;4928774;29;20104;-73
2022/12/14 04:49:51;;;;;;;22.25;13.10;;;;;;;-3.69;80.71;100217.09;4924890;29;20044;-73
2022/12/14 04:52:34;;;;;;;20.25;13.68;;;;;;;-3.70;81.27;100213.66;4931164;29;20135;-73
2022/12/14 04:55:35;;;;;;;19.90;13.63;;;;;;;-3.66;81.03;100222.31;4920812;29;20052;-73
2022/12/14 04:58:14;;;;;;;22.02;13.07;;;;;;;-3.66;80.91;100212.88;4933497;28;20270;-73
2022/12/14 05:01:10;;;;;;;23.80;13.73;;;;;;;-3.64;80.79;100207.75;4930851;29;20506;-73
2022/12/14 05:03:52;;;;;;;21.42;12.93;;;;;;;-3.64;80.96;100210.34;4924381;29;20641;-73
2022/12/14 05:06:46;;;;;;;20.52;13.02;;;;;;;-3.65;80.96;100200.88;4926492;28;20051;-73
2022/12/14 05:09:45;;;;;;;20.00;12.45;;;;;;;-3.66;80.92;100197.41;4927887;29;20042;-73
2022/12/14 05:12:25;;;;;;;18.33;12.68;;;;;;;-3.68;80.71;100186.22;4933704;29;20048;-74
2022/12/14 05:15:14;;;;;;;23.05;11.05;;;;;;;-3.62;80.69;100190.63;4932701;28;20718;-74
2022/12/14 05:17:41;;;;;;;16.13;10.48;;;;;;;-3.62;80.25;100191.47;4925380;29;20050;-74
2022/12/14 05:20:17;;;;;;;17.20;11.20;;;;;;;-3.59;79.90;100188.06;4929919;29;20040;-74
2022/12/14 05:22:45;;;;;;;17.38;10.27;;;;;;;-3.61;80.02;100179.44;4934721;29;20051;-74
2022/12/14 05:25:12;;;;;;;17.73;10.55;;;;;;;-3.60;80.05;100168.31;4931550;28;20103;-76
2022/12/14 05:27:39;;;;;;;17.42;9.95;;;;;;;-3.60;79.49;100161.44;4929609;28;20040;-76
2022/12/14 05:30:08;;;;;;;14.32;9.98;;;;;;;-3.60;79.78;100161.44;4932668;28;20459;-76
2022/12/14 05:32:35;;;;;;;14.40;9.68;;;;;;;-3.57;79.44;100164.94;4933437;28;20040;-77
2022/12/14 05:35:03;;;;;;;15.00;10.25;;;;;;;-3.57;79.40;100163.22;4937515;28;20055;-77
2022/12/14 05:37:31;;;;;;;15.75;9.95;;;;;;;-3.57;78.99;100158.06;4939313;28;20040;-78
2022/12/14 05:39:58;;;;;;;17.63;10.63;;;;;;;-3.56;79.18;100152.06;4932361;28;20581;-78
2022/12/14 05:42:25;;;;;;;14.75;9.48;;;;;;;-3.52;78.83;100151.28;4940104;28;20040;-77
2022/12/14 05:44:52;;;;;;;13.32;9.25;;;;;;;-3.50;78.50;100148.72;4935739;28;20656;-78
2022/12/14 05:47:19;;;;;;;34.10;10.20;;;;;;;-3.51;78.86;100147.84;4925804;28;20043;-74
2022/12/14 05:49:46;;;;;;;14.88;10.02;;;;;;;-3.32;79.90;100150.72;4921669;28;20104;-74
2022/12/14 05:52:16;;;;;;;16.48;9.40;;;;;;;-3.21;79.48;100151.75;4923654;29;20508;-74
2022/12/14 05:54:43;;;;;;;17.02;9.38;;;;;;;-3.02;79.85;100149.44;4926659;28;20162;-74
2022/12/14 05:57:10;;;;;;;14.52;9.38;;;;;;;-2.86;79.64;100151.38;4934740;28;20050;-75
2022/12/14 05:59:37;;;;;;;15.05;9.30;;;;;;;-2.74;79.08;100142.06;4929424;28;20076;-75
2022/12/14 06:02:04;;;;;;;14.07;8.85;;;;;;;-2.72;78.46;100155.84;4932824;29;20506;-75
2022/12/14 06:04:32;;;;;;;20.13;8.85;;;;;;;-2.71;78.20;100155.00;4921865;28;21174;-75
2022/12/14 06:06:59;;;;;;;13.05;8.55;;;;;;;-2.72;77.81;100154.13;4944706;28;20410;-75
2022/12/14 06:09:26;;;;;;;14.48;8.75;;;;;;;-2.74;77.69;100142.91;4927515;28;20474;-75
2022/12/14 06:11:53;;;;;;;15.15;7.80;;;;;;;-2.78;77.66;100148.03;4942313;28;20130;-74
2022/12/14 06:14:23;;;;;;;13.90;7.65;;;;;;;-2.71;77.92;100139.53;4924872;28;20057;-74
2022/12/14 06:16:50;;;;;;;13.38;8.20;;;;;;;-2.67;77.22;100141.28;4934340;28;20044;-75
2022/12/14 06:19:18;;;;;;;14.77;7.40;;;;;;;-2.73;76.85;100136.91;4940989;28;20502;-74
2022/12/14 06:21:45;;;;;;;13.43;7.85;;;;;;;-2.67;77.32;100142.16;4919679;28;20484;-73
2022/12/14 06:24:38;;;;;;;15.55;8.60;;;;;;;-2.66;76.58;100135.28;4917659;29;20052;-75
2022/12/14 06:27:05;;;;;;;13.73;7.80;;;;;;;-2.71;76.66;100142.13;4919780;29;20044;-74
2022/12/14 06:29:32;;;;;;;12.45;7.78;;;;;;;-2.68;77.02;100136.97;4926092;29;20039;-73
2022/12/14 06:32:00;;;;;;;15.05;8.52;;;;;;;-2.64;76.51;100141.34;4919028;29;20049;-73
2022/12/14 06:34:27;;;;;;;12.98;8.02;;;;;;;-2.77;76.35;100136.84;4931336;29;20055;-73
2022/12/14 06:36:54;;;;;;;14.02;8.00;;;;;;;-2.92;76.46;100134.94;4930744;29;20119;-73
2022/12/14 06:39:22;;;;;;;13.00;8.25;;;;;;;-3.04;76.59;100143.38;4933889;29;20143;-74
2022/12/14 06:41:50;;;;;;;15.57;8.38;;;;;;;-3.18;76.67;100135.47;4917036;29;20598;-73
2022/12/14 06:44:18;;;;;;;15.77;8.35;;;;;;;-3.29;77.11;100145.59;4934053;29;20072;-73
2022/12/14 06:46:46;;;;;;;13.18;8.60;;;;;;;-3.35;77.33;100141.22;4932540;29;20059;-73
2022/12/14 06:49:15;;;;;;;12.98;8.30;;;;;;;-3.41;77.44;100141.13;4914161;29;20116;-74
2022/12/14 06:51:43;;;;;;;14.95;8.82;;;;;;;-3.45;77.42;100147.06;4926569;29;20040;-74
2022/12/14 06:54:12;;;;;;;13.13;8.95;;;;;;;-3.51;77.71;100159.88;4932185;29;20060;-73
2022/12/14 06:56:40;;;;;;;12.88;8.20;;;;;;;-3.54;77.76;100164.97;4916954;29;20051;-75
2022/12/14 06:59:08;;;;;;;14.70;8.25;;;;;;;-3.59;77.88;100159.72;4898789;29;20087;-73
2022/12/14 07:01:37;;;;;;;15.10;8.27;;;;;;;-3.61;77.72;100162.28;4925989;29;20518;-74
2022/12/14 07:04:06;;;;;;;12.80;7.60;;;;;;;-3.67;78.18;100158.75;4915192;29;20502;-73
2022/12/14 07:06:38;;;;;;;14.32;7.80;;;;;;;-3.68;78.31;100152.75;4925539;29;20060;-73
2022/12/14 07:09:11;;;;;;;12.70;7.00;;;;;;;-3.71;78.71;100157.81;4915492;29;20510;-74
2022/12/14 07:11:39;;;;;;;13.00;7.80;;;;;;;-3.73;78.44;100158.66;4914320;29;20513;-74
2022/12/14 07:14:06;;;;;;;13.07;7.40;;;;;;;-3.76;78.73;100165.47;4915034;29;20045;-74
2022/12/14 07:16:35;;;;;;;13.45;7.32;;;;;;;-3.71;78.48;100162.13;4914072;29;20128;-74
2022/12/14 07:19:03;;;;;;;13.52;7.55;;;;;;;-3.73;78.46;100168.97;4914791;29;20045;-75
2022/12/14 07:21:31;;;;;;;13.30;7.43;;;;;;;-3.74;78.39;100175.81;4914889;29;20049;-74
2022/12/14 07:24:00;;;;;;;19.77;8.55;;;;;;;-3.75;78.66;100174.94;4923416;29;20053;-74
2022/12/14 07:26:28;;;;;;;17.20;7.88;;;;;;;-3.75;78.64;100174.06;4932378;29;20044;-74
2022/12/14 07:28:59;;;;;;;12.23;7.45;;;;;;;-3.78;78.70;100172.31;4931662;29;20032;-74
2022/12/14 07:31:28;;;;;;;13.88;7.63;;;;;;;-3.78;78.48;100167.16;4932862;29;20048;-74
2022/12/14 07:33:58;;;;;;;12.40;7.22;;;;;;;-3.80;78.81;100178.28;4933837;29;20514;-75
2022/12/14 07:36:28;;;;;;;12.23;7.35;;;;;;;-3.85;78.70;100177.31;4933579;29;20876;-74
2022/12/14 07:38:57;;;;;;;14.43;7.57;;;;;;;-3.87;78.69;100173.88;4932774;29;20043;-74
2022/12/14 07:41:30;;;;;;;13.40;7.82;;;;;;;-3.90;78.90;100183.28;4933393;29;21001;-75
2022/12/14 07:43:59;;;;;;;13.38;7.45;;;;;;;-3.93;78.79;100184.94;4933616;29;20058;-74
2022/12/14 07:46:30;;;;;;;11.05;7.28;;;;;;;-3.93;78.63;100188.34;4933026;29;20104;-74
2022/12/14 07:49:00;;;;;;;12.27;7.53;;;;;;;-3.94;78.59;100180.63;4932755;29;20050;-74
2022/12/14 07:51:32;;;;;;;11.35;6.85;;;;;;;-3.99;78.69;100172.81;4933210;29;20426;-74
2022/12/14 07:54:00;;;;;;;11.23;7.00;;;;;;;-3.98;78.79;100187.41;4933714;29;20049;-74
2022/12/14 07:56:38;;;;;;;11.32;6.93;;;;;;;-3.99;79.05;100184.78;4933308;29;20104;-75
2022/12/14 07:59:13;;;;;;;12.30;7.13;;;;;;;-4.03;78.72;100183.88;4934979;28;20055;-73
2022/12/14 08:01:42;;;;;;;11.57;6.47;;;;;;;-4.04;78.58;100184.72;4938435;28;20472;-73
2022/12/14 08:04:14;;;;;;;12.70;6.90;;;;;;;-4.08;78.77;100182.94;4950228;28;20047;-73
2022/12/14 08:06:41;;;;;;;11.23;6.80;;;;;;;-4.06;78.59;100183.81;4924044;28;20055;-73
2022/12/14 08:09:10;;;;;;;11.38;6.57;;;;;;;-4.10;78.65;100174.31;4933248;28;20120;-73
2022/12/14 08:11:39;;;;;;;11.85;7.22;;;;;;;-4.13;78.83;100177.69;4948434;28;20039;-73
2022/12/14 08:14:12;;;;;;;11.85;6.90;;;;;;;-4.15;78.56;100181.94;4948216;28;20048;-73
2022/12/14 08:16:39;;;;;;;10.73;6.95;;;;;;;-4.20;78.80;100186.13;4923592;28;20885;-73
2022/12/14 08:19:06;;;;;;;11.20;6.85;;;;;;;-4.25;78.88;100190.34;4940736;28;20889;-73
2022/12/14 08:21:33;;;;;;;12.52;6.88;;;;;;;-4.28;79.05;100193.72;4951708;28;20517;-73
2022/12/14 08:24:00;;;;;;;11.95;7.03;;;;;;;-4.33;79.01;100192.75;4939472;28;20063;-73
2022/12/14 08:26:28;;;;;;;12.85;7.25;;;;;;;-4.38;79.23;100204.66;4932355;29;20044;-73
2022/12/14 08:29:03;;;;;;;;;;;;;;;-4.43;79.22;100199.44;4946988;28;20060;-74
2022/12/14 08:31:32;;;;;;;12.10;6.75;;;;;;;-4.50;79.18;100200.13;4950479;28;19933;-74
2022/12/14 08:34:00;;;;;;;12.25;6.93;;;;;;;-4.55;79.50;100212.88;4951910;28;20498;-73
2022/12/14 08:36:34;;;;;;;12.80;7.03;;;;;;;-4.58;79.66;100205.09;4946232;28;20050;-72
2022/12/14 08:39:06;;;;;;;14.18;7.43;;;;;;;-4.60;79.79;100213.63;4942927;28;20510;-73
2022/12/14 08:41:33;;;;;;;11.13;6.90;;;;;;;-4.61;79.92;100215.34;4948957;28;20040;-72
2022/12/14 08:44:03;;;;;;;14.88;7.40;;;;;;;-4.61;80.11;100220.47;4933023;28;20059;-72
2022/12/14 08:46:33;;;;;;;15.48;7.53;;;;;;;-4.60;79.65;100211.94;4931869;28;20040;-72
2022/12/14 08:49:00;;;;;;;13.25;7.50;;;;;;;-4.61;80.15;100214.44;4935615;28;20051;-71
2022/12/14 08:51:28;;;;;;;12.40;7.18;;;;;;;-4.62;80.21;100212.72;4935311;29;20442;-71
2022/12/14 08:53:56;;;;;;;12.52;7.70;;;;;;;-4.63;80.36;100211.00;4935668;29;20040;-72
2022/12/14 08:56:26;;;;;;;13.25;7.53;;;;;;;-4.64;80.80;100204.13;4929382;28;20502;-72
2022/12/14 08:58:56;;;;;;;11.88;7.43;;;;;;;-4.61;80.17;100211.88;4932019;28;20621;-73
2022/12/14 09:01:29;;;;;;;12.30;7.28;;;;;;;-4.64;80.35;100216.97;4937755;28;20052;-72
2022/12/14 09:04:06;;;;;;;17.42;7.50;;;;;;;-4.64;80.59;100217.84;4943572;28;20604;-72
2022/12/14 09:06:37;;;;;;;13.45;8.05;;;;;;;-4.66;80.52;100216.06;4949360;28;20075;-72
2022/12/14 09:09:07;;;;;;;15.55;8.20;;;;;;;-4.64;80.44;100222.13;4934160;28;20957;-72
2022/12/14 09:11:43;;;;;;;15.43;8.07;;;;;;;-4.68;80.37;100218.63;4915903;29;20477;-72
2022/12/14 09:14:11;;;;;;;14.02;8.00;;;;;;;-4.65;80.39;100216.09;4931262;28;20056;-72
2022/12/14 09:16:39;;;;;;;14.13;8.10;;;;;;;-4.63;80.31;100222.16;4935304;29;20585;-72
2022/12/14 09:19:07;;;;;;;13.80;7.55;;;;;;;-4.64;80.21;100219.56;4935462;29;20055;-72
2022/12/14 09:21:34;;;;;;;14.98;7.68;;;;;;;-4.63;80.48;100223.88;4945033;28;20070;-73
2022/12/14 09:24:01;;;;;;;15.00;7.65;;;;;;;-4.63;80.40;100229.00;4954069;28;20123;-72
2022/12/14 09:26:29;;;;;;;14.70;8.30;;;;;;;-4.57;80.55;100224.00;4951208;28;20044;-72
2022/12/14 09:28:56;;;;;;;15.50;7.97;;;;;;;-4.57;80.67;100221.41;4943947;28;20044;-72
2022/12/14 09:31:26;;;;;;;14.95;8.07;;;;;;;-4.55;80.42;100225.75;4954504;28;20075;-73
2022/12/14 09:33:54;;;;;;;15.23;8.32;;;;;;;-4.55;80.38;100230.91;4951998;28;20040;-72
2022/12/14 09:36:25;;;;;;;17.75;8.45;;;;;;;-4.47;80.31;100233.63;4939221;28;20052;-72
2022/12/14 09:38:54;;;;;;;13.57;8.20;;;;;;;-4.33;80.22;100238.22;4935588;28;20040;-72
2022/12/14 09:41:33;;;;;;;15.50;8.88;;;;;;;-4.24;79.97;100235.84;4935090;29;20049;-72
2022/12/14 09:44:53;;;;;;;13.55;8.55;;;;;;;-4.12;79.77;100227.47;4937664;28;20043;-72
2022/12/14 09:47:35;;;;;;;14.60;8.77;;;;;;;-4.01;79.86;100225.09;4885493;29;20198;-72
2022/12/14 09:50:22;;;;;;;18.30;10.55;;;;;;;-3.93;79.52;100218.41;4948568;28;20051;-72
2022/12/14 09:52:58;;;;;;;13.32;7.97;;;;;;;-3.83;79.29;100212.59;4952568;28;20036;-72
2022/12/14 09:55:36;;;;;;;15.00;8.20;;;;;;;-3.75;78.99;100202.41;4954345;28;20045;-72
2022/12/14 09:58:18;;;;;;;15.38;8.98;;;;;;;-3.64;78.24;100195.72;4939447;28;20526;-72
2022/12/14 10:01:01;;;;;;;17.33;9.35;;;;;;;-3.56;78.23;100200.16;4938765;28;20062;-72
2022/12/14 10:03:44;;;;;;;18.02;10.60;;;;;;;-3.50;78.30;100193.38;4929916;28;20044;-72
2022/12/14 10:06:54;;;;;;;16.20;9.85;;;;;;;-3.41;77.82;100191.81;4927203;29;20542;-72
2022/12/14 10:09:39;;;;;;;18.83;10.40;;;;;;;-3.35;77.79;100195.34;4945344;28;20036;-72
2022/12/14 10:12:46;;;;;;;16.50;9.20;;;;;;;-3.24;77.70;100195.53;4934632;29;20048;-72
2022/12/14 10:15:23;;;;;;;14.88;8.70;;;;;;;-3.12;77.53;100187.09;4952414;28;20043;-72
2022/12/14 10:18:09;;;;;;;16.83;8.80;;;;;;;-3.03;77.24;100183.81;4947498;28;20461;-73
2022/12/14 10:21:11;;;;;;;13.80;8.38;;;;;;;-2.92;76.60;100186.53;4934466;29;20096;-73
2022/12/14 10:23:59;;;;;;;13.15;8.32;;;;;;;-2.83;76.34;100184.97;4932895;29;20067;-73
2022/12/14 10:26:37;;;;;;;15.70;8.45;;;;;;;-2.73;76.39;100175.63;4934341;29;20052;-74
2022/12/14 10:29:11;;;;;;;15.85;8.40;;;;;;;-2.63;75.88;100181.78;4934401;29;20458;-74
2022/12/14 10:31:51;;;;;;;15.80;8.88;;;;;;;-2.56;75.94;100182.72;4934522;29;20541;-73
2022/12/14 10:34:23;;;;;;;14.10;8.40;;;;;;;-2.53;76.24;100183.63;4930829;29;20044;-74
2022/12/14 10:37:22;;;;;;;15.25;8.70;;;;;;;-2.41;75.71;100185.50;4933918;29;20051;-73
2022/12/14 10:40:09;;;;;;;15.13;8.80;;;;;;;-2.32;75.46;100189.91;4933049;29;20054;-74
2022/12/14 10:43:14;;;;;;;17.08;9.55;;;;;;;-2.24;75.84;100190.00;4934108;29;20064;-73
2022/12/14 10:46:06;;;;;;;16.85;9.32;;;;;;;-2.15;75.52;100186.66;4933207;29;20502;-74
2022/12/14 10:48:57;;;;;;;15.68;8.93;;;;;;;-2.06;75.30;100189.31;4933780;29;20534;-74
2022/12/14 10:51:47;;;;;;;14.50;8.07;;;;;;;-1.98;75.70;100184.25;4933796;29;20078;-73
2022/12/14 10:54:36;;;;;;;14.50;8.40;;;;;;;-1.87;74.77;100187.81;4934131;29;20036;-74
2022/12/14 10:57:04;;;;;;;15.50;8.48;;;;;;;-1.81;74.49;100185.28;4933192;29;20044;-73
2022/12/14 10:59:37;;;;;;;31.17;9.10;;;;;;;-1.72;74.64;100181.94;4934113;28;20067;-73
2022/12/14 11:02:20;;;;;;;14.73;8.05;;;;;;;-1.64;74.87;100174.25;4924522;29;20060;-73
2022/12/14 11:05:02;;;;;;;14.82;7.88;;;;;;;-1.52;74.59;100178.66;4915180;29;20068;-73
2022/12/14 11:07:32;;;;;;;14.20;8.00;;;;;;;-1.47;74.37;100183.00;4915049;29;20044;-73
2022/12/14 11:10:21;;;;;;;12.20;7.18;;;;;;;-1.39;74.57;100185.66;4916312;29;20051;-73
2022/12/14 11:13:15;;;;;;;13.00;7.45;;;;;;;-1.29;73.46;100186.59;4938415;28;20091;-71
2022/12/14 11:15:49;;;;;;;14.27;8.02;;;;;;;-1.23;73.69;100188.38;4938107;28;20053;-71
2022/12/14 11:18:16;;;;;;;;;;;;;;;-1.18;73.33;100191.88;4935189;28;20055;-71
2022/12/14 11:20:55;;;;;;;10.73;7.18;;;;;;;-1.13;73.02;100198.81;4945262;28;19938;-71
2022/12/14 11:23:35;;;;;;;13.38;7.72;;;;;;;-1.10;72.86;100203.13;4932773;29;20044;-71
2022/12/14 11:26:14;;;;;;;14.25;7.40;;;;;;;-1.06;73.11;100189.34;4934380;28;20055;-71
2022/12/14 11:29:29;;;;;;;16.48;7.40;;;;;;;-0.94;71.59;100192.03;4933844;29;20044;-71
2022/12/14 11:31:58;;;;;;;17.45;7.10;;;;;;;-0.90;72.21;100198.06;4909968;29;20057;-73
2022/12/14 11:34:40;;;;;;;19.92;7.75;;;;;;;-0.83;72.29;100192.09;4914698;29;20052;-72
2022/12/14 11:37:28;;;;;;;13.25;7.20;;;;;;;-0.76;71.75;100187.78;4920272;29;20052;-72
2022/12/14 11:40:03;;;;;;;35.58;8.18;;;;;;;-0.69;71.81;100189.59;4941476;28;20046;-72
2022/12/14 11:42:32;;;;;;;14.32;7.53;;;;;;;-0.61;71.61;100191.34;4952116;28;20078;-71
2022/12/14 11:45:25;;;;;;;12.93;7.07;;;;;;;-0.55;71.43;100186.19;4944991;28;20059;-73
2022/12/14 11:48:13;;;;;;;26.42;7.63;;;;;;;-0.50;71.52;100180.16;4946217;28;20099;-72
2022/12/14 11:50:44;;;;;;;14.95;7.47;;;;;;;-0.47;71.26;100175.00;4941373;28;20052;-72
2022/12/14 11:53:18;;;;;;;19.63;8.10;;;;;;;-0.40;71.36;100180.19;4933624;29;20050;-72
2022/12/14 11:55:56;;;;;;;15.82;7.72;;;;;;;-0.34;71.84;100172.47;4932608;29;20044;-71
2022/12/14 11:58:32;;;;;;;15.05;7.20;;;;;;;-0.28;72.32;100176.81;4937836;28;20482;-71
2022/12/14 12:01:10;;;;;;;17.95;7.15;;;;;;;-0.23;72.23;100175.97;4950751;28;20043;-71
2022/12/14 12:03:47;;;;;;;17.38;11.73;;;;;;;-0.17;72.47;100175.13;4952551;28;20545;-71
2022/12/14 12:06:23;;;;;;;18.88;7.32;;;;;;;-0.11;70.16;100162.19;4937651;28;20044;-71
2022/12/14 12:09:01;;;;;;;37.25;8.50;;;;;;;-0.09;69.76;100169.94;4933869;28;20584;-72
2022/12/14 12:11:33;;;;;;;16.95;7.80;;;;;;;-0.09;70.57;100173.41;4933755;28;20048;-71